Time;durP1;ratioP1;P1;durP2;ratioP2;P2;SDS_P1;SDS_P2;PMS_P1;PMS_P2;Temp;Humidity;BMP_temperature;BMP_pressure;BME280_temperature;BME280_humidity;BME280_pressure;Samples;Min_cycle;Max_cycle;Signal;HPM_P1;HPM_P2
2022/05/24 00:01:03;;;;;;;6.07;3.07;;;;;;;17.58;91.55;99045.38;5092415;28;20199;-56
2022/05/24 00:03:31;;;;;;;5.37;3.10;;;;;;;17.54;91.90;99050.91;5092335;28;20201;-56
2022/05/24 00:05:58;;;;;;;3.87;3.40;;;;;;;17.49;92.25;99059.09;5092380;28;20191;-56
2022/05/24 00:08:26;;;;;;;6.43;3.30;;;;;;;17.51;92.50;99056.34;5092302;28;20203;-60
2022/05/24 00:10:54;;;;;;;7.10;3.33;;;;;;;17.32;93.50;99041.78;5092220;28;20199;-62
2022/05/24 00:13:21;;;;;;;3.50;3.30;;;;;;;17.32;94.05;99038.31;5092022;28;20234;-61
2022/05/24 00:15:48;;;;;;;5.43;3.40;;;;;;;17.37;93.69;99042.34;5091566;28;20611;-61
2022/05/24 00:18:18;;;;;;;3.83;3.53;;;;;;;17.37;93.82;99044.97;5090059;28;20207;-62
2022/05/24 00:20:47;;;;;;;7.90;3.57;;;;;;;17.22;93.58;99027.56;5091827;28;20195;-61
2022/05/24 00:23:15;;;;;;;7.40;3.70;;;;;;;17.48;93.18;99053.94;5092395;28;20578;-61
2022/05/24 00:25:52;;;;;;;3.60;3.30;;;;;;;17.56;92.18;99052.47;5091641;28;20282;-63
2022/05/24 00:28:20;;;;;;;4.70;4.30;;;;;;;17.52;91.76;99058.00;5092136;28;20226;-62
2022/05/24 00:30:48;;;;;;;4.40;4.00;;;;;;;17.43;92.37;99055.06;5091629;28;20249;-62
2022/05/24 00:33:16;;;;;;;11.20;4.60;;;;;;;17.38;92.93;99058.94;5091654;28;20196;-63
2022/05/24 00:35:44;;;;;;;4.07;3.73;;;;;;;17.36;93.30;99050.31;5091397;28;20223;-63
2022/05/24 00:38:13;;;;;;;3.90;3.60;;;;;;;17.36;93.26;99052.94;5091657;28;20198;-64
2022/05/24 00:40:57;;;;;;;5.80;3.60;;;;;;;17.50;91.87;99052.88;5091454;28;20196;-64
2022/05/24 00:43:30;;;;;;;5.00;3.50;;;;;;;17.57;90.35;99055.94;5091561;28;20203;-64
2022/05/24 00:46:02;;;;;;;4.20;3.90;;;;;;;17.50;90.93;99047.63;5091291;28;20715;-64
2022/05/24 00:48:33;;;;;;;4.17;3.87;;;;;;;17.54;90.29;99046.50;5091467;28;20203;-63
2022/05/24 00:51:02;;;;;;;4.80;3.53;;;;;;;17.57;90.38;99048.06;5090438;28;20592;-63
2022/05/24 00:53:35;;;;;;;3.13;3.00;;;;;;;17.62;89.86;99048.59;5091319;28;20203;-63
2022/05/24 00:56:08;;;;;;;3.80;3.20;;;;;;;17.53;90.52;99046.59;5091410;28;20223;-63
2022/05/24 00:58:41;;;;;;;4.57;3.53;;;;;;;17.45;90.63;99041.84;5091365;28;20191;-63
2022/05/24 01:01:24;;;;;;;3.77;3.47;;;;;;;17.50;90.48;99041.53;5091391;28;20676;-63
2022/05/24 01:03:51;;;;;;;7.10;3.40;;;;;;;17.45;91.10;99041.00;5091156;28;20201;-63
2022/05/24 01:06:18;;;;;;;3.57;3.27;;;;;;;17.22;91.05;98996.09;5091060;28;20195;-63
2022/05/24 01:08:46;;;;;;;3.80;3.43;;;;;;;17.37;91.61;99042.34;5090849;28;20248;-61
2022/05/24 01:11:15;;;;;;;7.10;3.80;;;;;;;17.23;92.81;99045.00;5091155;28;20194;-63
2022/05/24 01:13:44;;;;;;;4.63;4.17;;;;;;;17.25;92.46;99042.28;5091202;28;20208;-63
2022/05/24 01:16:12;;;;;;;3.60;3.40;;;;;;;17.22;92.94;99038.06;5090923;28;20223;-62
2022/05/24 01:18:39;;;;;;;5.40;3.30;;;;;;;17.15;93.85;99042.03;5090586;28;20203;-61
2022/05/24 01:21:10;;;;;;;3.77;2.73;;;;;;;17.11;93.61;99037.91;5090908;28;20198;-61
2022/05/24 01:23:53;;;;;;;3.30;3.00;;;;;;;17.00;94.14;99041.19;5090710;28;20280;-61
2022/05/24 01:26:27;;;;;;;3.83;3.23;;;;;;;17.00;95.11;99043.81;5090176;28;20191;-61
2022/05/24 01:28:58;;;;;;;3.37;2.83;;;;;;;17.00;94.93;99040.34;5090930;28;20584;-61
2022/05/24 01:36:09;;;;;;;4.60;3.13;;;;;;;17.03;94.93;99043.63;5090543;28;20207;-62
2022/05/24 01:36:58;;;;;;;3.63;3.33;;;;;;;17.04;94.72;99050.53;5090218;28;20726;-61
2022/05/24 01:39:25;;;;;;;3.10;2.83;;;;;;;17.02;94.67;99046.34;5090428;28;20197;-61
2022/05/24 01:41:53;;;;;;;4.80;3.10;;;;;;;16.97;95.12;99037.91;5090436;28;20195;-61
2022/05/24 01:44:26;;;;;;;5.37;3.57;;;;;;;16.89;95.81;99041.03;5090156;28;20191;-61
2022/05/24 01:46:54;;;;;;;3.63;3.33;;;;;;;16.85;95.96;99051.78;5090244;28;20579;-63
2022/05/24 01:49:25;;;;;;;5.23;3.80;;;;;;;16.84;96.46;99056.19;5090339;28;20575;-63
2022/05/24 01:52:00;;;;;;;17.17;5.07;;;;;;;16.89;96.00;99053.28;5090078;28;20200;-54
2022/05/24 01:54:30;;;;;;;5.07;4.53;;;;;;;16.86;96.37;99046.44;5090279;28;20194;-55
2022/05/24 01:57:02;;;;;;;7.47;4.37;;;;;;;16.64;98.37;99052.16;5090091;28;20227;-56
2022/05/24 01:59:32;;;;;;;10.23;6.33;;;;;;;16.68;98.14;99045.81;5090319;28;20209;-62
2022/05/24 02:02:01;;;;;;;9.27;7.83;;;;;;;16.80;97.19;99053.84;5089906;28;20191;-62
2022/05/24 02:04:31;;;;;;;9.73;6.00;;;;;;;16.88;96.73;99055.06;5090187;28;20202;-54
2022/05/24 02:07:05;;;;;;;7.33;5.47;;;;;;;16.96;95.50;99051.97;5089985;28;20187;-54
2022/05/24 02:09:32;;;;;;;8.30;6.27;;;;;;;17.00;94.72;99056.09;5089992;28;20191;-54
2022/05/24 02:12:04;;;;;;;14.23;7.80;;;;;;;16.98;94.53;99065.81;5089909;28;20278;-55
2022/05/24 02:14:36;;;;;;;8.07;6.23;;;;;;;16.96;93.99;99065.06;5089666;28;20584;-55
2022/05/24 02:17:09;;;;;;;6.03;4.70;;;;;;;17.02;93.06;99067.31;5090054;28;20634;-56
2022/05/24 02:19:39;;;;;;;6.13;4.40;;;;;;;17.04;93.02;99070.69;5089996;28;20274;-55
2022/05/24 02:22:12;;;;;;;9.60;4.13;;;;;;;16.95;93.12;99053.72;5089929;28;20286;-56
2022/05/24 02:24:39;;;;;;;4.17;3.30;;;;;;;17.07;91.61;99057.38;5089808;28;20711;-60
2022/05/24 02:27:07;;;;;;;4.17;3.53;;;;;;;16.95;91.51;99045.88;5090005;28;20213;-61
2022/05/24 02:29:35;;;;;;;3.90;3.23;;;;;;;17.02;91.56;99056.84;5089985;28;20693;-62
2022/05/24 02:32:02;;;;;;;5.07;3.67;;;;;;;17.09;91.87;99070.41;5089828;28;20198;-61
2022/05/24 02:34:29;;;;;;;3.80;3.40;;;;;;;16.98;92.45;99076.31;5089816;28;20222;-62
2022/05/24 02:36:56;;;;;;;5.03;3.40;;;;;;;16.99;92.67;99067.50;5089488;28;20223;-55
2022/05/24 02:39:23;;;;;;;10.03;4.10;;;;;;;16.99;92.78;99075.38;5093140;28;20203;-55
2022/05/24 02:41:49;;;;;;;6.57;4.20;;;;;;;16.93;92.78;99076.56;5094155;28;20199;-55
2022/05/24 02:44:17;;;;;;;5.07;4.40;;;;;;;16.96;92.33;99080.78;5093660;28;20647;-56
2022/05/24 02:46:48;;;;;;;9.43;4.23;;;;;;;16.98;91.73;99082.38;5093691;28;20191;-55
2022/05/24 02:49:16;;;;;;;5.30;4.90;;;;;;;16.87;92.37;99066.47;5093673;28;20195;-55
2022/05/24 02:51:44;;;;;;;4.67;4.20;;;;;;;16.82;92.80;99079.00;5093405;28;20244;-54
2022/05/24 02:54:11;;;;;;;6.47;4.20;;;;;;;16.70;94.46;99083.22;5093871;28;20214;-61
2022/05/24 02:56:38;;;;;;;5.07;4.20;;;;;;;16.70;95.02;99082.41;5093393;28;20229;-62
2022/05/24 02:59:05;;;;;;;6.17;4.57;;;;;;;16.66;94.50;99070.41;5093595;28;20202;-61
2022/05/24 03:01:32;;;;;;;4.70;4.37;;;;;;;16.71;95.03;99084.06;5093343;28;20265;-63
2022/05/24 03:04:01;;;;;;;4.77;4.40;;;;;;;16.76;94.67;99083.81;5093084;28;20199;-62
2022/05/24 03:09:33;;;;;;;5.93;4.20;;;;;;;16.78;93.87;99087.19;5092262;28;20213;-63
2022/05/24 03:14:44;;;;;;;10.57;4.00;;;;;;;16.71;94.46;99091.94;5090819;28;20279;-63
2022/05/24 03:17:11;;;;;;;3.97;3.53;;;;;;;16.72;93.68;99088.38;5091736;28;20605;-62
2022/05/24 03:19:39;;;;;;;4.07;3.83;;;;;;;16.71;94.50;99089.31;5090823;28;20191;-65
2022/05/24 03:22:08;;;;;;;7.67;3.83;;;;;;;16.73;94.21;99102.31;5088308;28;20264;-65
2022/05/24 03:24:35;;;;;;;5.37;4.00;;;;;;;16.86;95.09;99092.78;5092409;28;20684;-65
2022/05/24 03:27:05;;;;;;;5.60;4.43;;;;;;;17.08;94.73;99101.00;5092419;28;20276;-56
2022/05/24 03:29:33;;;;;;;6.83;5.13;;;;;;;17.03;91.10;99087.38;5092159;28;20276;-65
2022/05/24 03:32:00;;;;;;;4.87;4.50;;;;;;;17.20;91.58;99097.63;5091971;28;20223;-64
2022/05/24 03:34:26;;;;;;;4.80;4.50;;;;;;;17.31;89.36;99089.94;5090935;28;20229;-65
2022/05/24 03:36:55;;;;;;;6.53;4.90;;;;;;;17.44;88.21;99095.25;5092026;28;20238;-64
2022/05/24 03:39:22;;;;;;;5.23;4.80;;;;;;;17.50;87.26;99109.75;5090975;28;20219;-61
2022/05/24 03:41:49;;;;;;;6.33;5.33;;;;;;;17.55;86.55;99091.94;5091959;28;20229;-62
2022/05/24 03:44:16;;;;;;;9.13;8.30;;;;;;;17.69;85.78;99115.56;5091306;28;20231;-62
2022/05/24 03:46:43;;;;;;;10.53;9.07;;;;;;;17.82;85.46;99105.97;5092240;28;20211;-55
2022/05/24 03:49:10;;;;;;;8.70;7.97;;;;;;;18.32;82.14;99101.75;5090756;28;20254;-62
2022/05/24 03:51:37;;;;;;;7.40;6.33;;;;;;;18.73;78.63;99099.84;5091793;28;20242;-62
2022/05/24 03:54:06;;;;;;;9.60;5.90;;;;;;;18.79;76.85;99088.91;5092215;28;20199;-63
2022/05/24 03:56:33;;;;;;;5.60;5.07;;;;;;;18.75;76.96;99099.72;5090127;28;20307;-63
2022/05/24 03:59:00;;;;;;;5.70;4.80;;;;;;;18.49;78.52;99091.81;5091721;28;20217;-55
2022/05/24 04:01:27;;;;;;;4.10;3.73;;;;;;;18.65;77.40;99107.41;5091696;28;20197;-55
2022/05/24 04:03:54;;;;;;;6.97;4.27;;;;;;;18.64;77.05;99108.34;5092044;28;20207;-55
2022/05/24 04:06:21;;;;;;;4.60;4.20;;;;;;;18.69;76.70;99119.41;5092312;28;20213;-55
2022/05/24 04:08:48;;;;;;;4.80;3.83;;;;;;;18.61;77.35;99121.72;5092066;28;20679;-55
2022/05/24 04:11:16;;;;;;;4.13;3.83;;;;;;;18.54;78.11;99115.13;5091856;28;20703;-55
2022/05/24 04:13:44;;;;;;;4.57;4.00;;;;;;;18.49;78.67;99114.63;5092046;28;20195;-55
2022/05/24 04:16:11;;;;;;;4.27;3.40;;;;;;;18.50;78.14;99098.75;5091823;28;20199;-54
2022/05/24 04:18:38;;;;;;;3.80;3.50;;;;;;;18.62;77.44;99118.16;5092074;28;20230;-54
2022/05/24 04:21:05;;;;;;;5.47;4.10;;;;;;;18.48;77.29;99133.97;5092070;28;20199;-54
2022/05/24 04:23:31;;;;;;;4.37;3.90;;;;;;;18.37;78.71;99126.81;5091686;28;20199;-54
2022/05/24 04:25:58;;;;;;;5.10;3.97;;;;;;;18.44;79.52;99129.84;5091655;28;20210;-54
2022/05/24 04:28:27;;;;;;;7.07;3.73;;;;;;;18.68;76.89;99127.38;5085605;28;20230;-54
2022/05/24 04:30:53;;;;;;;7.83;3.90;;;;;;;18.85;75.97;99130.53;5089577;28;20229;-54
2022/05/24 04:33:21;;;;;;;5.80;4.60;;;;;;;19.16;74.68;99124.00;5087067;28;20538;-55
2022/05/24 04:35:48;;;;;;;6.03;3.70;;;;;;;19.13;72.94;99118.09;5088979;28;20215;-55
2022/05/24 04:38:15;;;;;;;6.95;3.50;;;;;;;19.70;70.23;99122.84;5089450;28;20223;-55
2022/05/24 04:43:28;;;;;;;5.13;3.33;;;;;;;20.87;63.56;99104.34;5088433;28;20199;-55
2022/05/24 04:45:56;;;;;;;4.70;3.38;;;;;;;21.93;59.68;99120.53;5090014;28;20242;-62
2022/05/24 04:48:24;;;;;;;6.13;3.25;;;;;;;22.16;58.13;99123.97;5090690;28;20199;-62
2022/05/24 04:50:53;;;;;;;4.85;2.95;;;;;;;23.13;54.86;99132.41;5085620;28;20195;-63
2022/05/24 04:53:20;;;;;;;4.40;3.03;;;;;;;23.51;52.52;99130.91;5088413;28;20222;-63
2022/05/24 04:55:49;;;;;;;7.15;3.13;;;;;;;23.89;51.31;99124.84;5090818;28;20654;-63
2022/05/24 04:58:16;;;;;;;3.75;2.92;;;;;;;24.45;49.96;99132.97;5091066;28;20614;-55
2022/05/24 05:00:45;;;;;;;4.47;3.03;;;;;;;25.62;47.24;99142.28;5086055;28;20226;-55
2022/05/24 05:03:14;;;;;;;6.43;3.03;;;;;;;26.45;44.42;99127.81;5088883;28;20584;-55
2022/05/24 05:05:41;;;;;;;5.55;3.15;;;;;;;27.50;42.37;99148.13;5089385;28;20716;-56
2022/05/24 05:08:09;;;;;;;8.05;3.00;;;;;;;27.72;41.19;99159.06;5090552;28;20310;-55
2022/05/24 05:10:36;;;;;;;3.30;3.10;;;;;;;27.75;40.93;99158.75;5090584;28;20237;-54
2022/05/24 05:13:04;;;;;;;6.72;2.80;;;;;;;26.70;42.87;99164.28;5090489;28;20302;-55
2022/05/24 05:15:31;;;;;;;15.73;2.90;;;;;;;25.69;44.97;99159.31;5090041;28;20242;-55
2022/05/24 05:18:05;;;;;;;4.38;2.95;;;;;;;24.84;47.12;99147.00;5090078;28;20223;-55
2022/05/24 05:20:32;;;;;;;7.15;3.47;;;;;;;24.22;48.14;99136.88;5089549;28;20257;-54
2022/05/24 05:22:59;;;;;;;3.53;3.28;;;;;;;23.78;50.00;99152.31;5089691;28;20226;-55
2022/05/24 05:25:26;;;;;;;3.75;2.88;;;;;;;23.27;51.24;99140.94;5090228;28;20222;-55
2022/05/24 05:27:53;;;;;;;6.53;3.38;;;;;;;22.75;53.15;99140.97;5090860;28;20766;-55
2022/05/24 05:33:06;;;;;;;8.40;3.30;;;;;;;22.87;54.00;99125.88;5088990;28;20214;-64
2022/05/24 05:35:33;;;;;;;5.97;2.70;;;;;;;23.90;51.13;99123.88;5088113;28;20222;-64
2022/05/24 05:38:00;;;;;;;7.95;2.97;;;;;;;25.02;47.73;99136.50;5087410;28;20226;-63
2022/05/24 05:40:26;;;;;;;4.40;3.15;;;;;;;26.12;44.94;99137.31;5087112;28;20272;-64
2022/05/24 05:42:53;;;;;;;5.82;2.60;;;;;;;27.52;42.13;99138.97;5087020;28;20225;-64
2022/05/24 05:45:20;;;;;;;4.72;2.80;;;;;;;28.19;40.14;99142.53;5086682;28;20360;-62
2022/05/24 05:47:48;;;;;;;5.82;2.75;;;;;;;28.73;38.92;99146.38;5087271;28;20225;-63
2022/05/24 05:50:17;;;;;;;4.55;2.90;;;;;;;27.66;40.26;99154.38;5088891;28;20230;-62
2022/05/24 05:52:44;;;;;;;3.00;2.75;;;;;;;25.92;43.55;99149.94;5089784;28;20250;-63
2022/05/24 05:55:12;;;;;;;3.88;2.65;;;;;;;25.31;44.77;99152.31;5086985;28;20309;-62
2022/05/24 05:57:40;;;;;;;6.65;3.00;;;;;;;25.09;46.14;99150.88;5088103;28;20219;-63
2022/05/24 06:00:08;;;;;;;8.63;3.47;;;;;;;24.90;46.05;99148.25;5089705;28;20738;-63
2022/05/24 06:02:35;;;;;;;5.63;3.47;;;;;;;24.24;46.85;99148.19;5086960;28;20226;-63
2022/05/24 06:05:02;;;;;;;3.15;3.05;;;;;;;23.57;48.43;99151.56;5086321;28;20679;-62
2022/05/24 06:07:31;;;;;;;4.32;3.50;;;;;;;23.51;48.47;99158.22;5086945;28;20219;-55
2022/05/24 06:09:58;;;;;;;8.77;3.45;;;;;;;24.78;46.09;99147.59;5086663;28;20227;-64
2022/05/24 06:12:25;;;;;;;4.15;3.85;;;;;;;26.16;43.45;99165.31;5086878;28;20223;-64
2022/05/24 06:14:52;;;;;;;2.95;2.75;;;;;;;26.93;41.16;99166.47;5087131;28;20251;-61
2022/05/24 06:17:19;;;;;;;3.17;2.90;;;;;;;27.54;39.68;99173.50;5087030;28;20231;-65
2022/05/24 06:19:46;;;;;;;54.78;15.07;;;;;;;27.76;40.66;99164.94;5086669;28;20215;-62
2022/05/24 06:22:13;;;;;;;5.10;4.30;;;;;;;27.54;39.47;99160.16;5087051;28;20219;-61
2022/05/24 06:24:43;;;;;;;3.70;3.30;;;;;;;27.98;38.49;99161.66;5087442;28;20746;-62
2022/05/24 06:27:09;;;;;;;3.85;2.95;;;;;;;28.40;37.45;99155.41;5089782;28;20211;-61
2022/05/24 06:29:36;;;;;;;3.42;3.17;;;;;;;28.37;37.64;99166.41;5089255;28;20306;-62
2022/05/24 06:32:04;;;;;;;6.97;3.50;;;;;;;28.54;38.25;99171.59;5089486;28;20222;-63
2022/05/24 06:34:31;;;;;;;4.88;2.75;;;;;;;28.62;37.64;99181.44;5088279;28;20220;-59
2022/05/24 06:36:59;;;;;;;3.17;2.80;;;;;;;28.63;37.74;99185.78;5089076;28;20608;-68
2022/05/24 06:39:27;;;;;;;2.92;2.60;;;;;;;28.84;37.17;99177.28;5088324;28;20229;-67
2022/05/24 06:41:55;;;;;;;5.25;3.28;;;;;;;28.16;38.13;99167.69;5089369;28;20266;-67
2022/05/24 06:44:22;;;;;;;8.82;3.50;;;;;;;27.89;37.88;99173.28;5088338;28;20703;-67
2022/05/24 06:46:49;;;;;;;4.07;3.00;;;;;;;27.72;38.83;99172.41;5089251;28;20225;-67
2022/05/24 06:49:16;;;;;;;5.47;3.20;;;;;;;27.16;39.84;99169.44;5088835;28;20227;-67
2022/05/24 06:51:44;;;;;;;4.72;3.50;;;;;;;25.98;42.54;99161.78;5088241;28;20563;-67
2022/05/24 06:54:11;;;;;;;3.97;3.63;;;;;;;25.21;44.13;99159.50;5088152;28;20207;-67
2022/05/24 06:56:38;;;;;;;8.07;3.63;;;;;;;24.51;46.04;99164.22;5088139;28;20203;-58
2022/05/24 07:04:35;;;;;;;3.38;3.17;;;;;;;23.32;49.59;99168.72;5089529;28;20222;-58
2022/05/24 07:07:02;;;;;;;5.95;3.53;;;;;;;23.01;50.46;99162.59;5089351;28;20202;-57
2022/05/24 07:09:31;;;;;;;8.27;3.70;;;;;;;23.38;50.23;99159.38;5089665;28;20206;-57
2022/05/24 07:11:58;;;;;;;3.03;2.83;;;;;;;23.55;49.49;99160.59;5088500;28;20748;-58
2022/05/24 07:14:26;;;;;;;5.03;3.97;;;;;;;23.46;49.99;99159.59;5089221;28;20196;-67
2022/05/24 07:16:53;;;;;;;3.33;3.15;;;;;;;23.64;49.57;99157.97;5089084;28;20195;-67
2022/05/24 07:19:21;;;;;;;4.07;3.75;;;;;;;23.92;48.99;99160.84;5089374;28;20202;-66
2022/05/24 07:21:48;;;;;;;7.90;3.53;;;;;;;24.51;47.73;99160.75;5089294;28;20698;-66
2022/05/24 07:24:15;;;;;;;7.03;3.30;;;;;;;25.23;46.43;99166.34;5090753;28;20202;-68
2022/05/24 07:26:43;;;;;;;3.95;3.33;;;;;;;25.19;45.82;99161.47;5092998;28;20199;-67
2022/05/24 07:29:10;;;;;;;7.32;3.20;;;;;;;26.01;44.18;99161.47;5092827;28;20643;-67
2022/05/24 07:31:39;;;;;;;4.57;3.40;;;;;;;26.57;42.93;99158.53;5092705;28;20241;-68
2022/05/24 07:34:06;;;;;;;4.93;3.33;;;;;;;26.96;42.06;99151.03;5092442;28;20199;-68
2022/05/24 07:36:33;;;;;;;7.72;3.30;;;;;;;27.31;41.42;99155.41;5092831;28;20199;-67
2022/05/24 07:39:00;;;;;;;8.68;3.33;;;;;;;27.81;40.28;99127.91;5091940;28;20226;-67
2022/05/24 07:46:57;;;;;;;3.40;3.10;;;;;;;27.77;40.64;99142.56;5092667;28;20202;-66
2022/05/24 07:49:24;;;;;;;3.30;3.10;;;;;;;28.58;38.88;99150.69;5092604;28;20195;-67
2022/05/24 07:51:51;;;;;;;4.50;3.63;;;;;;;28.89;38.11;99151.69;5092301;28;20558;-67
2022/05/24 07:54:18;;;;;;;4.28;3.38;;;;;;;28.80;37.54;99131.34;5092369;28;20195;-67
2022/05/24 07:56:45;;;;;;;5.47;3.20;;;;;;;28.59;38.21;99152.38;5092122;28;20191;-67
2022/05/24 07:59:12;;;;;;;4.72;3.28;;;;;;;28.38;38.48;99157.38;5092454;28;20227;-58
2022/05/24 08:01:40;;;;;;;3.63;3.30;;;;;;;28.97;37.52;99152.69;5092371;28;20682;-67
2022/05/24 08:04:09;;;;;;;7.63;3.80;;;;;;;29.06;37.48;99136.47;5092348;28;20195;-67
2022/05/24 08:06:36;;;;;;;5.47;3.33;;;;;;;28.75;38.08;99155.06;5092118;28;20191;-68
2022/05/24 08:09:04;;;;;;;3.80;3.60;;;;;;;27.42;40.22;99149.78;5092095;28;20198;-67
2022/05/24 08:11:31;;;;;;;3.65;3.25;;;;;;;26.71;41.74;99144.66;5092275;28;20249;-67
2022/05/24 08:13:59;;;;;;;4.25;3.78;;;;;;;26.20;43.28;99156.00;5092101;28;20594;-67
2022/05/24 08:16:25;;;;;;;8.85;3.65;;;;;;;25.77;44.05;99153.25;5092068;28;20195;-69
2022/05/24 08:18:53;;;;;;;5.85;3.88;;;;;;;25.08;44.98;99127.94;5091923;28;20339;-67
2022/05/24 08:21:22;;;;;;;5.82;3.72;;;;;;;24.74;45.90;99134.72;5091934;28;20570;-67
2022/05/24 08:23:49;;;;;;;4.60;3.58;;;;;;;24.27;47.29;99128.53;5091757;28;20225;-67
2022/05/24 08:26:16;;;;;;;3.80;3.15;;;;;;;24.55;46.61;99127.66;5091956;28;20282;-67
2022/05/24 08:28:43;;;;;;;7.43;3.25;;;;;;;25.47;44.98;99127.78;5091777;28;20202;-68
2022/05/24 08:31:11;;;;;;;8.48;5.10;;;;;;;26.36;43.07;99131.41;5091806;28;20195;-67
2022/05/24 08:33:40;;;;;;;4.13;3.42;;;;;;;26.93;41.42;99099.91;5091804;28;20199;-66
2022/05/24 08:36:07;;;;;;;5.97;3.20;;;;;;;27.38;40.89;99096.94;5091800;28;20252;-67
2022/05/24 08:38:36;;;;;;;4.75;3.90;;;;;;;26.88;41.21;99091.50;5091824;28;20227;-67
2022/05/24 08:41:07;;;;;;;7.05;3.80;;;;;;;26.56;42.14;99092.13;5091505;28;20195;-58
2022/05/24 08:43:56;;;;;;;6.78;3.65;;;;;;;26.34;43.13;99086.31;5091587;28;20299;-58
2022/05/24 08:49:18;;;;;;;7.18;3.40;;;;;;;26.36;42.80;99100.31;5091564;28;20197;-57
2022/05/24 08:51:51;;;;;;;5.25;3.40;;;;;;;26.70;42.05;99113.72;5091403;28;20644;-67
2022/05/24 08:54:22;;;;;;;5.47;3.53;;;;;;;27.07;41.22;99105.47;5091585;28;20199;-67
2022/05/24 08:56:53;;;;;;;3.33;2.95;;;;;;;26.91;41.70;99120.50;5091017;28;20283;-67
2022/05/24 08:59:26;;;;;;;6.70;3.50;;;;;;;27.03;41.48;99111.28;5091089;28;20215;-67
2022/05/24 09:01:54;;;;;;;3.70;3.40;;;;;;;27.46;40.92;99108.47;5091093;28;20229;-66
2022/05/24 09:04:21;;;;;;;4.80;3.40;;;;;;;27.61;40.71;99110.53;5091214;28;20652;-67
2022/05/24 09:06:55;;;;;;;3.72;3.20;;;;;;;27.58;39.96;99100.19;5090974;28;20206;-67
2022/05/24 09:09:44;;;;;;;7.43;3.72;;;;;;;27.07;41.02;99109.97;5090992;28;20293;-66
2022/05/24 09:12:30;;;;;;;4.95;3.35;;;;;;;26.57;41.89;99104.47;5090642;28;20584;-67
2022/05/24 09:18:26;;;;;;;3.22;2.97;;;;;;;26.90;40.76;99102.84;5090913;28;20299;-66
2022/05/24 09:20:54;;;;;;;9.57;2.90;;;;;;;27.69;39.97;99111.41;5090913;28;20646;-66
2022/05/24 09:23:30;;;;;;;7.00;3.28;;;;;;;27.23;40.48;99126.03;5090970;28;20915;-66
2022/05/24 09:26:01;;;;;;;4.72;3.13;;;;;;;26.84;40.57;99111.47;5090552;28;20282;-67
2022/05/24 09:28:49;;;;;;;4.60;2.92;;;;;;;27.10;39.72;99109.63;5090924;28;20565;-67
2022/05/24 09:31:36;;;;;;;5.45;3.30;;;;;;;27.22;39.23;99111.03;5090874;28;20282;-66
2022/05/24 09:34:07;;;;;;;5.03;3.38;;;;;;;27.38;39.29;99108.44;5090512;28;20202;-66
2022/05/24 09:36:39;;;;;;;5.97;3.17;;;;;;;27.24;39.20;99114.38;5090674;28;20581;-57
2022/05/24 09:39:21;;;;;;;3.28;2.50;;;;;;;27.00;39.76;99108.91;5090386;28;20225;-58
2022/05/24 09:41:56;;;;;;;5.15;2.97;;;;;;;27.24;39.80;99106.38;5090161;28;20218;-58
2022/05/24 09:44:24;;;;;;;3.90;3.30;;;;;;;27.45;39.75;99090.78;5089606;28;20205;-58
2022/05/24 09:46:51;;;;;;;3.55;3.15;;;;;;;27.88;39.09;99086.25;5089403;28;20206;-57
2022/05/24 09:49:28;;;;;;;4.60;3.30;;;;;;;28.35;38.47;99083.81;5087486;28;20590;-57
2022/05/24 09:51:57;;;;;;;2.78;2.67;;;;;;;28.54;38.49;99087.97;5089481;28;20201;-57
2022/05/24 09:54:27;;;;;;;5.03;3.15;;;;;;;28.55;38.06;99073.63;5087168;28;20595;-57
2022/05/24 09:57:06;;;;;;;3.97;2.75;;;;;;;28.72;38.12;99101.13;5088294;28;20202;-57
2022/05/24 09:59:35;;;;;;;3.53;3.17;;;;;;;28.56;38.05;99087.81;5086923;28;20246;-57
2022/05/24 10:02:21;;;;;;;4.95;3.20;;;;;;;28.17;38.19;99083.13;5088286;28;20200;-58
2022/05/24 10:04:48;;;;;;;5.60;3.55;;;;;;;28.33;38.04;99082.31;5087789;28;20699;-58
2022/05/24 10:07:23;;;;;;;3.80;3.50;;;;;;;27.91;38.34;99085.94;5087974;28;20213;-57
2022/05/24 10:10:01;;;;;;;5.25;3.28;;;;;;;27.80;38.39;99084.41;5087407;28;20190;-58
2022/05/24 10:13:01;;;;;;;6.10;3.30;;;;;;;27.94;38.15;99080.28;5086466;28;20195;-58
2022/05/24 10:15:34;;;;;;;7.82;3.53;;;;;;;27.77;38.12;99076.72;5075660;28;20206;-58
2022/05/24 10:18:17;;;;;;;4.72;3.45;;;;;;;27.56;38.56;99079.03;5086133;28;20195;-58
2022/05/24 10:20:53;;;;;;;4.63;4.22;;;;;;;27.31;39.14;99083.44;5088878;28;20195;-57
2022/05/24 10:23:40;;;;;;;8.20;3.88;;;;;;;26.92;39.63;99093.72;5083529;28;20226;-57
2022/05/24 10:26:20;;;;;;;3.80;3.45;;;;;;;26.89;39.96;99086.03;5089382;28;20715;-58
2022/05/24 10:28:59;;;;;;;6.00;4.22;;;;;;;26.75;39.90;99087.44;5089020;28;20578;-58
2022/05/24 10:31:37;;;;;;;3.65;3.42;;;;;;;26.71;40.35;99080.78;5087247;28;20197;-59
2022/05/24 10:40:03;;;;;;;3.95;3.67;;;;;;;26.79;40.80;99064.00;5087985;28;20222;-59
2022/05/24 10:42:44;;;;;;;5.13;3.70;;;;;;;26.50;41.38;99047.53;5087479;28;20199;-58
2022/05/24 10:45:17;;;;;;;4.47;3.40;;;;;;;26.82;41.02;99046.88;5087723;28;20642;-58
2022/05/24 10:47:50;;;;;;;3.88;3.35;;;;;;;26.65;40.64;99049.44;5086988;28;20202;-58
2022/05/24 10:50:23;;;;;;;7.07;3.38;;;;;;;26.38;41.37;99020.34;5088446;28;20203;-58
2022/05/24 10:52:55;;;;;;;5.55;3.30;;;;;;;26.48;41.92;99046.84;5089080;28;20257;-58
2022/05/24 10:55:26;;;;;;;4.55;3.40;;;;;;;26.44;42.11;99040.16;5086510;28;20563;-66
2022/05/24 10:57:56;;;;;;;3.13;2.88;;;;;;;26.59;42.36;99034.09;5089157;28;20205;-66
2022/05/24 11:00:32;;;;;;;6.93;3.75;;;;;;;26.51;41.98;99027.91;5092751;28;20666;-66
2022/05/24 11:03:07;;;;;;;3.13;2.92;;;;;;;26.51;42.32;99018.09;5089847;28;20213;-66
2022/05/24 11:05:38;;;;;;;4.90;3.40;;;;;;;26.19;42.79;99012.50;5092860;28;20282;-66
2022/05/24 11:08:21;;;;;;;5.85;3.47;;;;;;;25.97;43.15;99014.66;5092782;28;20290;-58
2022/05/24 11:10:51;;;;;;;3.95;3.53;;;;;;;26.03;42.96;99015.91;5091600;28;20198;-58
2022/05/24 11:13:29;;;;;;;4.20;3.40;;;;;;;26.10;43.33;99014.28;5093169;28;20227;-65
2022/05/24 11:16:03;;;;;;;6.10;3.58;;;;;;;26.30;42.84;99002.47;5092569;28;20592;-66
2022/05/24 11:18:30;;;;;;;4.88;3.58;;;;;;;26.34;43.13;99001.19;5092456;28;20322;-66
2022/05/24 11:21:07;;;;;;;5.68;3.45;;;;;;;26.36;43.63;98993.03;5092404;28;20199;-65
2022/05/24 11:23:39;;;;;;;4.95;4.22;;;;;;;26.30;43.75;98981.19;5092455;28;20201;-63
2022/05/24 11:26:12;;;;;;;6.07;4.05;;;;;;;26.40;44.06;98970.47;5092726;28;20203;-65
2022/05/24 11:28:47;;;;;;;7.03;3.55;;;;;;;26.43;43.87;98970.13;5092424;28;20512;-65
2022/05/24 11:31:36;;;;;;;3.90;3.58;;;;;;;26.50;43.21;98965.03;5092983;28;20589;-66
2022/05/24 11:34:13;;;;;;;5.00;3.35;;;;;;;26.37;43.30;98970.78;5089971;28;20198;-66
2022/05/24 11:36:43;;;;;;;8.55;3.85;;;;;;;26.53;43.27;98978.81;5092244;28;20210;-66
2022/05/24 11:39:24;;;;;;;4.22;3.20;;;;;;;26.75;43.39;98970.28;5091880;28;20218;-66
2022/05/24 11:42:25;;;;;;;4.80;3.33;;;;;;;26.81;43.79;98965.31;5091007;28;20693;-66
2022/05/24 11:44:54;;;;;;;5.60;3.50;;;;;;;26.59;43.79;98972.88;5091111;28;20233;-65
2022/05/24 11:47:57;;;;;;;4.03;3.53;;;;;;;26.39;44.54;98979.44;5092632;28;20313;-65
2022/05/24 11:50:46;;;;;;;4.40;4.10;;;;;;;26.37;45.60;98992.06;5092767;28;20213;-66
2022/05/24 11:53:36;;;;;;;5.03;3.80;;;;;;;26.43;45.37;98998.56;5092259;28;20191;-66
2022/05/24 11:56:18;;;;;;;8.18;4.25;;;;;;;25.76;46.29;98963.66;5091586;28;20207;-66
2022/05/24 11:58:51;;;;;;;5.68;3.90;;;;;;;26.14;46.51;99002.34;5091843;28;20214;-66
2022/05/24 12:01:56;;;;;;;7.10;4.05;;;;;;;26.28;47.63;99001.81;5091591;28;20269;-66
2022/05/24 12:10:31;;;;;;;5.00;4.57;;;;;;;26.36;47.92;99017.84;5089390;28;20235;-66
2022/05/24 12:13:16;;;;;;;6.07;4.13;;;;;;;26.41;47.89;99020.03;5090448;28;20195;-66
2022/05/24 12:15:49;;;;;;;4.75;4.15;;;;;;;26.28;48.49;99011.63;5091203;28;20195;-65
2022/05/24 12:18:19;;;;;;;4.55;4.15;;;;;;;26.15;49.04;99013.81;5091911;28;20274;-64
2022/05/24 12:20:59;;;;;;;6.88;4.50;;;;;;;26.18;49.78;99016.19;5091917;28;20198;-65
2022/05/24 12:23:42;;;;;;;5.70;4.72;;;;;;;26.46;49.07;99012.41;5092350;28;20199;-65
2022/05/24 12:26:12;;;;;;;4.95;4.00;;;;;;;26.47;49.33;99011.41;5092197;28;20590;-65
2022/05/24 12:28:50;;;;;;;6.80;5.18;;;;;;;26.64;48.05;99010.50;5091960;28;20195;-66
2022/05/24 12:31:30;;;;;;;6.43;4.32;;;;;;;26.74;48.10;98999.75;5091826;28;20245;-66
2022/05/24 12:33:59;;;;;;;5.95;4.30;;;;;;;26.51;48.93;99014.59;5091849;28;20659;-65